Time;durP1;ratioP1;P1;durP2;ratioP2;P2;SDS_P1;SDS_P2;PMS_P1;PMS_P2;Temp;Humidity;BMP_temperature;BMP_pressure;BME280_temperature;BME280_humidity;BME280_pressure;Samples;Min_cycle;Max_cycle;Signal;HPM_P1;HPM_P2
2022/09/07 04:19:26;;;;;;;;;;;17.00;99.90;;;;;;6239450;22;19919;-77
2022/09/07 04:22:03;;;;;;;;;;;16.90;99.90;;;;;;6219199;23;19916;-77
2022/09/07 04:24:29;;;;;;;;;;;17.00;99.90;;;;;;6219385;23;19911;-77
2022/09/07 04:26:55;;;;;;;;;;;17.00;99.90;;;;;;6193392;23;20226;-79
2022/09/07 04:29:24;;;;;;;;;;;17.00;99.90;;;;;;6193822;23;20212;-77
2022/09/07 04:32:22;;;;;;;;;;;16.90;99.90;;;;;;6194057;23;19916;-79
2022/09/07 04:35:06;;;;;;;;;;;17.00;99.90;;;;;;6220963;23;19916;-82
2022/09/07 04:37:35;;;;;;;;;;;17.00;99.90;;;;;;6194065;23;19911;-78
2022/09/07 04:40:01;;;;;;;;;;;17.00;99.90;;;;;;6194037;23;19912;-79
2022/09/07 04:42:26;;;;;;;;;;;17.00;99.90;;;;;;6219009;23;19911;-79
2022/09/07 04:44:52;;;;;;;;;;;16.90;99.90;;;;;;6194030;23;19911;-80
2022/09/07 04:47:18;;;;;;;;;;;16.90;99.90;;;;;;6193021;23;20400;-80
2022/09/07 04:49:43;;;;;;;;;;;16.90;99.90;;;;;;6194279;23;19915;-79
2022/09/07 04:52:09;;;;;;;;;;;16.90;99.90;;;;;;6192242;23;20513;-80
2022/09/07 04:54:35;;;;;;;;;;;16.90;99.90;;;;;;6192083;23;19912;-80
2022/09/07 04:57:03;;;;;;;;;;;16.90;99.90;;;;;;6192228;23;19986;-79
2022/09/07 04:59:28;;;;;;;;;;;16.90;99.90;;;;;;6219111;23;20266;-79
2022/09/07 05:01:54;;;;;;;;;;;16.90;99.90;;;;;;6193675;23;19922;-79
2022/09/07 05:04:22;;;;;;;;;;;16.90;99.90;;;;;;6194384;23;20253;-80
2022/09/07 05:06:48;;;;;;;;;;;16.90;99.90;;;;;;6194101;23;19911;-79
2022/09/07 05:09:14;;;;;;;;;;;16.90;99.90;;;;;;6193994;23;19915;-80
2022/09/07 05:11:39;;;;;;;;;;;16.90;99.90;;;;;;6194146;23;20222;-79
2022/09/07 05:14:05;;;;;;;;;;;16.90;99.90;;;;;;6194100;23;19912;-80
2022/09/07 05:16:31;;;;;;;;;;;16.90;99.90;;;;;;6194102;23;19912;-79
2022/09/07 05:18:58;;;;;;;;;;;16.90;99.90;;;;;;6194306;23;19912;-79
2022/09/07 05:21:25;;;;;;;;;;;16.90;99.90;;;;;;6193729;23;19982;-80
2022/09/07 05:23:51;;;;;;;;;;;16.80;99.90;;;;;;6193948;23;19982;-80
2022/09/07 05:26:18;;;;;;;;;;;16.90;99.90;;;;;;6194087;23;19917;-80
2022/09/07 05:28:43;;;;;;;;;;;16.90;99.90;;;;;;6218981;23;20269;-79
2022/09/07 05:31:14;;;;;;;;;;;16.90;99.90;;;;;;6193676;23;19912;-80
2022/09/07 05:33:47;;;;;;;;;;;16.90;99.90;;;;;;6194160;23;19911;-79
2022/09/07 05:36:13;;;;;;;;;;;16.90;99.90;;;;;;6193983;23;19912;-80
2022/09/07 05:38:39;;;;;;;;;;;16.90;99.90;;;;;;6218919;23;19957;-79
2022/09/07 05:41:11;;;;;;;;;;;16.90;99.90;;;;;;6194279;23;19918;-79
2022/09/07 05:43:37;;;;;;;;;;;17.00;99.90;;;;;;6219234;23;19923;-79
2022/09/07 05:46:31;;;;;;;;;;;17.00;99.90;;;;;;6193264;23;19911;-80
2022/09/07 06:42:40;;;;;;;;;;;17.40;99.90;;;;;;6237457;22;19915;-76
2022/09/07 06:45:06;;;;;;;;;;;17.40;99.90;;;;;;6215230;23;19920;-78
2022/09/07 06:47:34;;;;;;;;;;;17.50;99.90;;;;;;6196582;23;20295;-76
2022/09/07 06:50:00;;;;;;;;;;;17.70;99.90;;;;;;6195998;23;19951;-74
2022/09/07 06:52:26;;;;;;;;;;;17.80;99.90;;;;;;6196158;23;20373;-74
2022/09/07 06:54:52;;;;;;;;;;;17.80;99.90;;;;;;6220773;23;19916;-75
2022/09/07 06:57:17;;;;;;;;;;;17.80;99.90;;;;;;6221358;23;19919;-75
2022/09/07 06:59:43;;;;;;;;;;;17.70;99.90;;;;;;6192679;23;19939;-75
2022/09/07 07:02:10;;;;;;;;;;;17.60;99.90;;;;;;6194422;23;19929;-75
2022/09/07 07:04:35;;;;;;;;;;;17.60;99.90;;;;;;6219647;23;19915;-76
2022/09/07 07:07:01;;;;;;;;;;;17.60;99.90;;;;;;6219558;23;19970;-74
2022/09/07 07:09:26;;;;;;;;;;;17.60;99.90;;;;;;6219593;23;19923;-72
2022/09/07 07:11:52;;;;;;;;;;;17.70;99.90;;;;;;6219671;23;19982;-73
2022/09/07 07:14:18;;;;;;;;;;;17.60;99.90;;;;;;6246162;23;20311;-73
2022/09/07 07:16:44;;;;;;;;;;;17.60;99.90;;;;;;6194400;23;20266;-73
2022/09/07 07:19:09;;;;;;;;;;;17.60;99.90;;;;;;6194594;23;19916;-72
2022/09/07 07:21:35;;;;;;;;;;;17.60;99.90;;;;;;6194489;23;19994;-72
2022/09/07 07:24:00;;;;;;;;;;;17.50;99.90;;;;;;6246283;23;19920;-73
2022/09/07 07:26:26;;;;;;;;;;;17.50;99.90;;;;;;6218914;23;19950;-76
2022/09/07 07:28:53;;;;;;;;;;;17.50;99.90;;;;;;6219356;23;19919;-74
2022/09/07 07:31:20;;;;;;;;;;;17.60;99.90;;;;;;6246061;23;20283;-72
2022/09/07 07:33:47;;;;;;;;;;;17.80;99.90;;;;;;6219517;23;19951;-73
2022/09/07 07:36:14;;;;;;;;;;;18.00;99.90;;;;;;6219027;23;19923;-73
2022/09/07 07:38:43;;;;;;;;;;;18.10;99.90;;;;;;6219987;23;19916;-72
2022/09/07 07:41:09;;;;;;;;;;;18.10;99.90;;;;;;6194561;23;19916;-74
2022/09/07 07:43:35;;;;;;;;;;;18.00;99.90;;;;;;6220199;23;19926;-74
2022/09/07 07:46:01;;;;;;;;;;;18.20;99.90;;;;;;6195129;23;19982;-74
2022/09/07 07:48:26;;;;;;;;;;;18.30;99.90;;;;;;6195327;23;19922;-75
2022/09/07 07:51:04;;;;;;;;;;;18.30;99.90;;;;;;6220666;23;19916;-75
2022/09/07 07:53:31;;;;;;;;;;;18.40;99.90;;;;;;6220343;23;19915;-72
2022/09/07 07:55:58;;;;;;;;;;;18.50;99.90;;;;;;6247437;23;19922;-73
2022/09/07 07:58:25;;;;;;;;;;;18.40;99.90;;;;;;6220494;23;19937;-76
2022/09/07 08:00:51;;;;;;;;;;;18.50;99.90;;;;;;6220613;23;19994;-74
2022/09/07 08:03:17;;;;;;;;;;;18.60;99.90;;;;;;6195556;23;19951;-75
2022/09/07 08:05:42;;;;;;;;;;;18.60;99.90;;;;;;6220796;23;19922;-75
2022/09/07 08:08:09;;;;;;;;;;;18.60;99.90;;;;;;6220403;23;20303;-75
2022/09/07 08:10:34;;;;;;;;;;;18.70;99.90;;;;;;6195425;23;19923;-73
2022/09/07 08:13:00;;;;;;;;;;;18.80;99.90;;;;;;6195488;23;19931;-74
2022/09/07 08:15:25;;;;;;;;;;;18.90;99.90;;;;;;6220070;23;19916;-73
2022/09/07 08:17:51;;;;;;;;;;;19.00;99.90;;;;;;6247180;23;19923;-74
2022/09/07 08:20:17;;;;;;;;;;;19.20;99.90;;;;;;6191503;23;19920;-75
2022/09/07 08:22:42;;;;;;;;;;;19.40;99.90;;;;;;6218787;23;19916;-78
2022/09/07 08:25:09;;;;;;;;;;;19.50;99.90;;;;;;6193777;23;19923;-76
2022/09/07 08:27:34;;;;;;;;;;;19.50;99.90;;;;;;6193745;23;19919;-76
2022/09/07 08:30:02;;;;;;;;;;;19.60;99.90;;;;;;6218698;23;19916;-76
2022/09/07 08:32:30;;;;;;;;;;;19.90;99.90;;;;;;6193622;23;19954;-76
2022/09/07 08:34:57;;;;;;;;;;;20.00;99.90;;;;;;6168826;23;19916;-78
2022/09/07 08:37:23;;;;;;;;;;;20.10;99.90;;;;;;6194769;23;19916;-75
2022/09/07 08:39:48;;;;;;;;;;;20.30;99.90;;;;;;6218959;23;20315;-76
2022/09/07 08:45:38;;;;;;;;;;;20.70;99.90;;;;;;6245754;23;19953;-76
2022/09/07 08:48:04;;;;;;;;;;;20.90;99.90;;;;;;6192613;23;19943;-76
2022/09/07 08:50:39;;;;;;;;;;;21.00;99.90;;;;;;6218823;23;19922;-74
2022/09/07 08:53:07;;;;;;;;;;;21.10;99.90;;;;;;6218389;23;19958;-75
2022/09/07 08:55:36;;;;;;;;;;;21.20;99.90;;;;;;6194369;23;19986;-75
2022/09/07 08:58:10;;;;;;;;;;;21.30;99.90;;;;;;6219990;23;19969;-75
2022/09/07 09:00:38;;;;;;;;;;;21.40;99.90;;;;;;6195268;23;19983;-76
2022/09/07 09:03:07;;;;;;;;;;;21.50;99.90;;;;;;6219998;23;19990;-76
2022/09/07 09:05:38;;;;;;;;;;;21.70;99.90;;;;;;6220062;23;19990;-74
2022/09/07 09:08:23;;;;;;;;;;;21.80;99.90;;;;;;6220059;23;19973;-75
2022/09/07 09:10:55;;;;;;;;;;;21.90;99.90;;;;;;6220096;23;19916;-73
2022/09/07 09:13:27;;;;;;;;;;;22.10;99.90;;;;;;6219788;23;19916;-76
2022/09/07 09:16:01;;;;;;;;;;;22.40;99.90;;;;;;6195052;23;19915;-76
2022/09/07 09:18:30;;;;;;;;;;;22.30;99.90;;;;;;6220036;23;19997;-75
2022/09/07 09:20:56;;;;;;;;;;;22.40;99.90;;;;;;6219979;23;20005;-74
2022/09/07 09:23:40;;;;;;;;;;;22.50;99.90;;;;;;6219999;23;19920;-75
2022/09/07 09:26:10;;;;;;;;;;;22.60;99.90;;;;;;6220083;23;19938;-76
2022/09/07 09:28:36;;;;;;;;;;;22.80;99.90;;;;;;6169967;23;19916;-76
2022/09/07 09:31:02;;;;;;;;;;;22.90;99.90;;;;;;6220030;23;19915;-77
2022/09/07 09:33:28;;;;;;;;;;;23.00;99.90;;;;;;6219695;23;19985;-75
2022/09/07 09:35:55;;;;;;;;;;;23.00;99.90;;;;;;6194790;23;19915;-75
2022/09/07 09:38:35;;;;;;;;;;;23.10;99.90;;;;;;6219928;23;19947;-79
2022/09/07 09:41:03;;;;;;;;;;;23.20;99.90;;;;;;6219935;23;19916;-75
2022/09/07 09:43:49;;;;;;;;;;;23.20;99.90;;;;;;6220006;23;19915;-75
2022/09/07 09:46:18;;;;;;;;;;;23.10;99.90;;;;;;6221500;23;20249;-76
2022/09/07 09:48:48;;;;;;;;;;;23.20;99.90;;;;;;6221660;23;19916;-77
2022/09/07 09:51:14;;;;;;;;;;;23.30;99.90;;;;;;6221804;23;19915;-75
2022/09/07 09:53:46;;;;;;;;;;;23.30;99.90;;;;;;6221391;23;20322;-76
2022/09/07 09:56:12;;;;;;;;;;;23.40;99.90;;;;;;6196822;23;19950;-75
2022/09/07 09:58:44;;;;;;;;;;;23.40;99.90;;;;;;6221849;23;19919;-75
2022/09/07 10:01:23;;;;;;;;;;;23.50;99.90;;;;;;6220740;23;19986;-77
2022/09/07 10:03:49;;;;;;;;;;;23.60;99.90;;;;;;6196722;23;19915;-74
2022/09/07 10:06:16;;;;;;;;;;;23.50;99.90;;;;;;6221524;23;19925;-74
2022/09/07 10:08:54;;;;;;;;;;;23.40;99.90;;;;;;6196565;23;20294;-77
2022/09/07 10:11:37;;;;;;;;;;;23.40;99.90;;;;;;6221656;23;19999;-73
2022/09/07 10:14:03;;;;;;;;;;;23.40;99.90;;;;;;6196918;23;19965;-75
2022/09/07 10:16:47;;;;;;;;;;;23.40;99.90;;;;;;6221712;23;20269;-75
2022/09/07 10:19:24;;;;;;;;;;;23.60;99.90;;;;;;6221351;23;19987;-76
2022/09/07 10:21:57;;;;;;;;;;;23.80;99.90;;;;;;6221168;23;19950;-74
2022/09/07 10:24:24;;;;;;;;;;;24.00;99.90;;;;;;6247927;23;19990;-73
2022/09/07 10:26:50;;;;;;;;;;;24.10;99.90;;;;;;6196350;23;19916;-73
2022/09/07 10:29:23;;;;;;;;;;;24.10;99.90;;;;;;6221350;23;19923;-73
2022/09/07 10:31:54;;;;;;;;;;;24.10;99.90;;;;;;6196449;23;19922;-74
2022/09/07 10:34:23;;;;;;;;;;;24.20;99.90;;;;;;6221484;23;19990;-75
2022/09/07 10:36:54;;;;;;;;;;;24.30;99.90;;;;;;6196285;23;20310;-74
2022/09/07 10:39:24;;;;;;;;;;;24.40;99.90;;;;;;6221393;23;19923;-77
2022/09/07 10:42:05;;;;;;;;;;;24.40;99.90;;;;;;6221327;23;20345;-72
2022/09/07 10:44:40;;;;;;;;;;;24.40;99.90;;;;;;6220983;23;19968;-75
2022/09/07 10:47:18;;;;;;;;;;;24.50;99.90;;;;;;6196267;23;19916;-74
2022/09/07 10:49:55;;;;;;;;;;;24.60;99.90;;;;;;6220932;23;19922;-76
2022/09/07 10:52:27;;;;;;;;;;;24.60;99.90;;;;;;6221201;23;19916;-74
2022/09/07 10:54:55;;;;;;;;;;;24.70;99.90;;;;;;6195927;23;19916;-75
2022/09/07 10:57:35;;;;;;;;;;;24.80;99.90;;;;;;6195854;23;19916;-74
2022/09/07 11:00:01;;;;;;;;;;;24.90;99.90;;;;;;6221092;23;19915;-75
2022/09/07 11:02:27;;;;;;;;;;;24.90;99.90;;;;;;6196141;23;20268;-76
2022/09/07 11:05:11;;;;;;;;;;;24.90;99.90;;;;;;6221185;23;19922;-73
2022/09/07 11:07:46;;;;;;;;;;;25.00;99.90;;;;;;6195974;23;20310;-76
2022/09/07 11:10:21;;;;;;;;;;;25.10;99.90;;;;;;6195985;23;20249;-74
2022/09/07 11:12:51;;;;;;;;;;;25.30;99.90;;;;;;6196180;23;19916;-74
2022/09/07 11:15:16;;;;;;;;;;;25.40;99.90;;;;;;6220482;23;19912;-75
2022/09/07 11:17:52;;;;;;;;;;;25.30;99.90;;;;;;6195555;23;20049;-80
2022/09/07 11:20:30;;;;;;;;;;;25.40;99.90;;;;;;6195689;23;19954;-76
2022/09/07 11:23:03;;;;;;;;;;;25.40;99.90;;;;;;6195730;23;19991;-77
2022/09/07 11:25:28;;;;;;;;;;;25.40;99.90;;;;;;6195444;23;19912;-77
2022/09/07 11:28:11;;;;;;;;;;;25.20;99.90;;;;;;6220686;23;19923;-77
2022/09/07 11:30:41;;;;;;;;;;;25.20;99.90;;;;;;6195988;23;19970;-78
2022/09/07 11:33:10;;;;;;;;;;;25.20;99.90;;;;;;6195871;23;19961;-75
2022/09/07 11:35:39;;;;;;;;;;;25.30;99.90;;;;;;6195951;23;20329;-76
2022/09/07 11:38:11;;;;;;;;;;;25.20;99.90;;;;;;6220653;23;20341;-75
2022/09/07 11:40:43;;;;;;;;;;;25.10;99.90;;;;;;6195256;23;19922;-75
2022/09/07 11:43:31;;;;;;;;;;;25.00;99.90;;;;;;6220523;23;20306;-75
2022/09/07 11:46:01;;;;;;;;;;;24.90;99.90;;;;;;6200626;23;19951;-75
2022/09/07 11:48:30;;;;;;;;;;;24.80;99.90;;;;;;6220297;23;19922;-77
2022/09/07 11:50:58;;;;;;;;;;;24.80;99.90;;;;;;6220604;23;19922;-76
2022/09/07 11:53:37;;;;;;;;;;;25.00;99.90;;;;;;6220251;23;19916;-78
2022/09/07 11:56:05;;;;;;;;;;;24.90;99.90;;;;;;6195312;23;19912;-75
2022/09/07 11:58:40;;;;;;;;;;;24.70;99.90;;;;;;6195223;23;19912;-76
2022/09/07 12:01:24;;;;;;;;;;;24.80;99.90;;;;;;6247375;23;20199;-76
2022/09/07 12:04:08;;;;;;;;;;;25.00;99.90;;;;;;6195078;23;19911;-75
2022/09/07 12:06:37;;;;;;;;;;;25.10;99.90;;;;;;6219735;23;19922;-76
2022/09/07 12:09:15;;;;;;;;;;;24.80;99.90;;;;;;6220333;23;20329;-75
2022/09/07 12:11:52;;;;;;;;;;;24.70;99.90;;;;;;6195014;23;19915;-75
2022/09/07 12:14:29;;;;;;;;;;;24.50;99.90;;;;;;6195527;23;19911;-76
2022/09/07 12:17:04;;;;;;;;;;;24.50;99.90;;;;;;6220538;23;19911;-73
2022/09/07 12:19:29;;;;;;;;;;;24.40;99.90;;;;;;6195182;23;19916;-75
2022/09/07 12:21:56;;;;;;;;;;;24.20;99.90;;;;;;6195444;23;19965;-74
2022/09/07 12:24:25;;;;;;;;;;;24.00;99.90;;;;;;6247246;23;20256;-76
2022/09/07 12:26:50;;;;;;;;;;;24.00;99.90;;;;;;6195278;23;19915;-76
2022/09/07 12:29:18;;;;;;;;;;;24.10;99.90;;;;;;6219801;23;20425;-74
2022/09/07 12:31:48;;;;;;;;;;;24.20;99.90;;;;;;6220410;23;19959;-74
2022/09/07 12:34:32;;;;;;;;;;;24.30;99.90;;;;;;6220157;23;19934;-74
2022/09/07 12:37:21;;;;;;;;;;;24.40;99.90;;;;;;6219804;23;19915;-75
2022/09/07 12:39:47;;;;;;;;;;;24.50;99.90;;;;;;6194931;23;19919;-76
2022/09/07 12:42:25;;;;;;;;;;;24.70;99.90;;;;;;6247167;23;19938;-75
2022/09/07 12:45:10;;;;;;;;;;;24.70;99.90;;;;;;6219790;23;20368;-74
2022/09/07 12:47:35;;;;;;;;;;;24.70;99.90;;;;;;6220166;23;19923;-75
2022/09/07 12:50:05;;;;;;;;;;;24.50;99.90;;;;;;6220125;23;19915;-75
2022/09/07 12:52:37;;;;;;;;;;;24.30;99.90;;;;;;6195092;23;19916;-75
2022/09/07 12:55:16;;;;;;;;;;;24.40;99.90;;;;;;6220160;23;19938;-75
2022/09/07 12:57:41;;;;;;;;;;;24.50;99.90;;;;;;6220084;23;19916;-74
2022/09/07 13:00:19;;;;;;;;;;;24.50;99.90;;;;;;6195027;23;19915;-76
2022/09/07 13:02:51;;;;;;;;;;;24.50;99.90;;;;;;6220031;23;19973;-73
2022/09/07 13:05:19;;;;;;;;;;;24.40;99.90;;;;;;6220013;23;19916;-75
2022/09/07 13:07:50;;;;;;;;;;;24.50;99.90;;;;;;6219875;23;19969;-73
2022/09/07 13:10:19;;;;;;;;;;;24.50;99.90;;;;;;6220053;23;19922;-76
2022/09/07 13:12:46;;;;;;;;;;;24.50;99.90;;;;;;6195309;23;19920;-79
2022/09/07 13:15:30;;;;;;;;;;;24.40;99.90;;;;;;6194748;23;19923;-76
2022/09/07 13:17:56;;;;;;;;;;;24.50;99.90;;;;;;6194692;23;19912;-73
2022/09/07 13:20:27;;;;;;;;;;;24.50;99.90;;;;;;6221751;23;19923;-75
2022/09/07 13:22:53;;;;;;;;;;;24.60;99.90;;;;;;6221785;23;20323;-75
2022/09/07 13:25:20;;;;;;;;;;;24.40;99.90;;;;;;6197127;23;19911;-76
2022/09/07 13:27:51;;;;;;;;;;;24.60;99.90;;;;;;6221987;23;20318;-76
2022/09/07 13:30:31;;;;;;;;;;;24.70;99.90;;;;;;6196861;23;19965;-75
2022/09/07 13:33:19;;;;;;;;;;;24.60;99.90;;;;;;6221866;23;19919;-76
2022/09/07 13:35:45;;;;;;;;;;;24.80;99.90;;;;;;6197120;23;19919;-74
2022/09/07 13:38:13;;;;;;;;;;;24.80;99.90;;;;;;6221941;23;20259;-76
2022/09/07 13:40:39;;;;;;;;;;;24.90;99.90;;;;;;6221886;23;19990;-77
2022/09/07 13:43:05;;;;;;;;;;;24.80;99.90;;;;;;6221640;23;20293;-75
2022/09/07 13:45:32;;;;;;;;;;;24.80;99.90;;;;;;6220933;23;19915;-77
2022/09/07 13:48:36;;;;;;;;;;;24.90;99.90;;;;;;6196333;23;20393;-76
2022/09/07 13:51:20;;;;;;;;;;;24.70;99.90;;;;;;6072821;23;19913;-75
2022/09/07 13:53:54;;;;;;;;;;;24.40;99.90;;;;;;6072713;23;20332;-77
2022/09/07 13:56:35;;;;;;;;;;;24.40;99.90;;;;;;6162867;23;19931;-73
2022/09/07 14:02:44;;;;;;;;;;;24.70;99.90;;;;;;6217688;23;19915;-83
2022/09/07 14:05:24;;;;;;;;;;;24.90;99.90;;;;;;6197287;23;19911;-80
2022/09/07 14:08:23;;;;;;;;;;;24.90;99.90;;;;;;6190770;23;19982;-81
2022/09/07 14:11:09;;;;;;;;;;;;;;;;;;;;;
2022/09/07 14:16:35;;;;;;;;;;;24.70;99.90;;;;;;6215721;23;19955;-83
2022/09/07 14:19:01;;;;;;;;;;;24.50;99.90;;;;;;6195428;23;19911;-81
2022/09/07 14:24:47;;;;;;;;;;;24.70;99.90;;;;;;6214589;23;19915;-83
2022/09/07 14:27:27;;;;;;;;;;;24.80;99.90;;;;;;6195408;23;19962;-81
2022/09/07 14:30:22;;;;;;;;;;;24.90;99.90;;;;;;6196302;23;19961;-83
2022/09/07 14:33:02;;;;;;;;;;;24.90;99.90;;;;;;6134604;23;20006;-82
2022/09/07 14:35:40;;;;;;;;;;;24.90;99.90;;;;;;6195463;23;19918;-82
2022/09/07 14:38:29;;;;;;;;;;;24.70;99.90;;;;;;6224167;22;19911;-81
2022/09/07 14:41:17;;;;;;;;;;;24.60;99.90;;;;;;6225962;22;19904;-81
2022/09/07 14:44:01;;;;;;;;;;;24.50;99.90;;;;;;6224585;22;19911;-81
2022/09/07 14:46:35;;;;;;;;;;;24.40;99.90;;;;;;6224496;22;19904;-82
2022/09/07 14:52:38;;;;;;;;;;;24.00;99.90;;;;;;6236894;23;19961;-81
2022/09/07 14:55:36;;;;;;;;;;;23.90;99.90;;;;;;6197309;23;19954;-82
2022/09/07 14:58:19;;;;;;;;;;;23.80;99.90;;;;;;6196585;23;19915;-82
2022/09/07 15:00:49;;;;;;;;;;;23.80;99.90;;;;;;6195794;23;20353;-83
2022/09/07 15:03:31;;;;;;;;;;;23.70;99.90;;;;;;6195857;23;20322;-83
2022/09/07 15:06:08;;;;;;;;;;;23.70;99.90;;;;;;6195241;23;19943;-83
2022/09/07 15:08:44;;;;;;;;;;;23.70;99.90;;;;;;6195330;23;19916;-80
2022/09/07 15:14:29;;;;;;;;;;;23.80;99.90;;;;;;6220624;23;20038;-81
2022/09/07 15:17:01;;;;;;;;;;;23.90;99.90;;;;;;6195245;23;19950;-83
2022/09/07 15:19:49;;;;;;;;;;;;;;;;;;;;;
2022/09/07 15:25:48;;;;;;;;;;;24.00;99.90;;;;;;6222371;23;19923;-81
2022/09/07 15:28:27;;;;;;;;;;;23.90;99.90;;;;;;6195813;23;19912;-71
2022/09/07 15:30:53;;;;;;;;;;;23.90;99.90;;;;;;6220441;23;20342;-72
2022/09/07 15:33:18;;;;;;;;;;;23.90;99.90;;;;;;6220242;23;19961;-69
2022/09/07 15:35:47;;;;;;;;;;;23.90;99.90;;;;;;6247289;23;19916;-72
2022/09/07 15:38:12;;;;;;;;;;;23.90;99.90;;;;;;6219966;23;19915;-72
2022/09/07 15:40:43;;;;;;;;;;;23.90;99.90;;;;;;6246822;23;19969;-73
2022/09/07 15:43:08;;;;;;;;;;;23.90;99.90;;;;;;6220221;23;20234;-73
2022/09/07 15:45:34;;;;;;;;;;;23.80;99.90;;;;;;6217621;23;19919;-72
2022/09/07 15:48:00;;;;;;;;;;;23.70;99.90;;;;;;6218435;23;19993;-74
2022/09/07 15:50:26;;;;;;;;;;;23.60;99.90;;;;;;6218417;23;20204;-72
2022/09/07 15:52:51;;;;;;;;;;;23.60;99.90;;;;;;6218233;23;19969;-71
2022/09/07 15:55:17;;;;;;;;;;;23.50;99.90;;;;;;6218006;23;19959;-71
2022/09/07 15:57:42;;;;;;;;;;;23.40;99.90;;;;;;6192664;23;19920;-72
2022/09/07 16:00:08;;;;;;;;;;;23.30;99.90;;;;;;6218602;23;19920;-71
2022/09/07 16:02:35;;;;;;;;;;;23.30;99.90;;;;;;6218102;23;19919;-72
2022/09/07 16:05:02;;;;;;;;;;;23.10;99.90;;;;;;6245093;23;19942;-72
2022/09/07 16:07:28;;;;;;;;;;;23.00;99.90;;;;;;6192863;23;19922;-69
2022/09/07 16:09:53;;;;;;;;;;;22.90;99.90;;;;;;6217864;23;19986;-73
2022/09/07 16:12:19;;;;;;;;;;;22.80;99.90;;;;;;6193218;23;19923;-73
2022/09/07 16:14:45;;;;;;;;;;;22.80;99.90;;;;;;6245029;23;19923;-70
2022/09/07 16:17:11;;;;;;;;;;;22.80;99.90;;;;;;6217573;23;19997;-73
2022/09/07 16:19:37;;;;;;;;;;;22.80;99.90;;;;;;6218093;23;19915;-71
2022/09/07 16:22:02;;;;;;;;;;;22.80;99.90;;;;;;6218287;23;19915;-72
2022/09/07 16:24:28;;;;;;;;;;;22.90;99.90;;;;;;6168156;23;20337;-71
2022/09/07 16:26:53;;;;;;;;;;;22.90;99.90;;;;;;6192355;23;19916;-71
2022/09/07 16:29:19;;;;;;;;;;;22.90;99.90;;;;;;6217916;23;19941;-71
2022/09/07 16:31:45;;;;;;;;;;;22.90;99.90;;;;;;6217974;23;19915;-72
2022/09/07 16:34:10;;;;;;;;;;;22.90;99.90;;;;;;6217813;23;19915;-70
2022/09/07 16:36:36;;;;;;;;;;;22.90;99.90;;;;;;6218773;23;19965;-70
2022/09/07 16:39:01;;;;;;;;;;;22.90;99.90;;;;;;6191922;23;19923;-69
2022/09/07 16:41:33;;;;;;;;;;;22.90;99.90;;;;;;6192690;23;19922;-75
2022/09/07 16:47:08;;;;;;;;;;;22.90;99.90;;;;;;6237496;23;19915;-73
2022/09/07 16:49:43;;;;;;;;;;;22.80;99.90;;;;;;6193438;23;19912;-70
2022/09/07 16:52:09;;;;;;;;;;;22.70;99.90;;;;;;6218863;23;19915;-72
2022/09/07 16:54:35;;;;;;;;;;;22.50;99.90;;;;;;6169113;23;19947;-76
2022/09/07 16:57:00;;;;;;;;;;;22.50;99.90;;;;;;6194176;23;19963;-70
2022/09/07 16:59:26;;;;;;;;;;;22.40;99.90;;;;;;6219796;23;20293;-69
2022/09/07 17:01:52;;;;;;;;;;;22.30;99.90;;;;;;6219687;23;19916;-71
2022/09/07 17:04:18;;;;;;;;;;;22.30;99.90;;;;;;6194757;23;20310;-72
2022/09/07 17:06:43;;;;;;;;;;;22.00;99.90;;;;;;6219875;23;19919;-70
2022/09/07 17:09:13;;;;;;;;;;;22.00;99.90;;;;;;6219865;23;20329;-71
2022/09/07 17:11:39;;;;;;;;;;;21.90;99.90;;;;;;6194967;23;19922;-72
2022/09/07 17:14:05;;;;;;;;;;;21.90;99.90;;;;;;6219698;23;19920;-72
2022/09/07 17:16:35;;;;;;;;;;;21.80;99.90;;;;;;6220264;23;19923;-72
2022/09/07 17:19:02;;;;;;;;;;;21.80;99.90;;;;;;6194692;23;19997;-73
2022/09/07 17:21:28;;;;;;;;;;;21.70;99.90;;;;;;6194110;23;19994;-68
2022/09/07 17:23:54;;;;;;;;;;;21.70;99.90;;;;;;6218964;23;20237;-69
2022/09/07 17:26:21;;;;;;;;;;;21.60;99.90;;;;;;6219986;23;19990;-72
2022/09/07 17:28:50;;;;;;;;;;;21.40;99.90;;;;;;6194115;23;19915;-68
2022/09/07 17:31:19;;;;;;;;;;;21.30;99.90;;;;;;6246239;23;20261;-71
2022/09/07 17:33:49;;;;;;;;;;;21.20;99.90;;;;;;6219454;23;19922;-74
2022/09/07 17:36:15;;;;;;;;;;;21.10;99.90;;;;;;6194889;23;19926;-72
2022/09/07 17:38:40;;;;;;;;;;;21.00;99.90;;;;;;6220025;23;20242;-74
2022/09/07 17:41:19;;;;;;;;;;;20.90;99.90;;;;;;6219466;23;19919;-72
2022/09/07 17:43:46;;;;;;;;;;;20.70;99.90;;;;;;6194946;23;19926;-74
2022/09/07 17:46:14;;;;;;;;;;;20.60;99.90;;;;;;6194358;23;20310;-74
2022/09/07 17:48:40;;;;;;;;;;;20.50;99.90;;;;;;6219334;23;19916;-73
2022/09/07 17:51:06;;;;;;;;;;;20.40;99.90;;;;;;6219078;23;19953;-74
2022/09/07 17:53:33;;;;;;;;;;;20.30;99.90;;;;;;6194327;23;19916;-71
2022/09/07 17:55:58;;;;;;;;;;;20.30;99.90;;;;;;6219902;23;19922;-74
2022/09/07 19:46:59;;;;;;;;;;;18.00;99.90;;;;;;6247422;23;20234;-77
2022/09/07 19:49:25;;;;;;;;;;;18.00;99.90;;;;;;6194800;23;19970;-80
2022/09/07 19:55:23;;;;;;;;;;;17.90;99.90;;;;;;6247089;23;19950;-77
2022/09/07 20:01:10;;;;;;;;;;;17.90;99.90;;;;;;6246697;23;19952;-70
2022/09/07 20:03:53;;;;;;;;;;;;;;;;;;;;;
2022/09/07 20:07:10;;;;;;;;;;;17.70;99.90;;;;;;6245906;23;19958;-73
2022/09/07 20:12:54;;;;;;;;;;;17.70;99.90;;;;;;6124315;23;19920;-74
2022/09/07 20:25:36;;;;;;;;;;;17.60;99.90;;;;;;6117247;23;19951;-75
2022/09/07 20:28:20;;;;;;;;;;;17.60;99.90;;;;;;6077316;23;19937;-78
2022/09/07 20:31:04;;;;;;;;;;;;;;;;;;;;;
2022/09/07 20:33:43;;;;;;;;;;;17.50;99.90;;;;;;6119581;23;19917;-79
2022/09/07 20:36:16;;;;;;;;;;;17.50;99.90;;;;;;6151291;23;19915;-77
2022/09/07 20:39:11;;;;;;;;;;;17.50;99.90;;;;;;6193702;23;19934;-79
2022/09/07 20:45:17;;;;;;;;;;;17.40;99.90;;;;;;6123498;23;19924;-76
2022/09/07 20:47:52;;;;;;;;;;;17.20;99.90;;;;;;6099086;23;20043;-75
2022/09/07 21:05:22;;;;;;;;;;;17.40;99.90;;;;;;6009023;23;20410;-76
2022/09/07 21:08:38;;;;;;;;;;;17.30;99.90;;;;;;5985788;23;19957;-76
2022/09/07 21:11:26;;;;;;;;;;;17.30;99.90;;;;;;6001265;23;20373;-77
2022/09/07 21:14:54;;;;;;;;;;;;;;;;;;;;;
2022/09/07 21:36:02;;;;;;;;;;;;;;;;;;;;;
2022/09/07 21:39:21;;;;;;;;;;;;;;;;;;;;;
2022/09/07 22:06:33;;;;;;;;;;;;;;;;;;;;;
2022/09/07 22:23:44;;;;;;;;;;;;;;;;;;;;;
2022/09/07 22:27:30;;;;;;;;;;;;;;;;;;;;;
2022/09/07 22:54:34;;;;;;;;;;;16.80;99.90;;;;;;5874571;24;19908;-74
2022/09/07 23:05:08;;;;;;;;;;;16.90;99.90;;;;;;5871671;24;20343;-74
2022/09/07 23:56:16;;;;;;;;;;;17.40;99.90;;;;;;5954588;23;19915;-75
2022/09/07 23:58:57;;;;;;;;;;;17.50;99.90;;;;;;5985540;23;20341;-75
